createdAt,value
2019-04-22T00:00:36.651Z,99.90
2019-04-22T00:03:10.268Z,99.90
2019-04-22T00:06:01.136Z,99.90
2019-04-22T00:08:36.239Z,99.90
2019-04-22T00:11:19.540Z,99.90
2019-04-22T00:16:26.453Z,99.90
2019-04-22T00:19:09.380Z,99.90
2019-04-22T00:21:33.331Z,99.90
2019-04-22T00:24:04.502Z,99.90
2019-04-22T00:26:37.454Z,99.90
2019-04-22T00:29:36.055Z,99.90
2019-04-22T00:32:01.994Z,99.90
2019-04-22T00:34:37.178Z,99.90
2019-04-22T00:37:08.239Z,99.90
2019-04-22T00:39:46.541Z,99.90
2019-04-22T00:42:21.129Z,99.90
2019-04-22T00:44:58.491Z,99.90
2019-04-22T00:47:27.833Z,99.90
2019-04-22T00:50:12.951Z,99.90
2019-04-22T00:52:34.289Z,99.90
2019-04-22T00:57:38.809Z,99.90
2019-04-22T01:00:17.640Z,99.80
2019-04-22T01:02:49.744Z,99.40
2019-04-22T01:05:25.599Z,99.90
2019-04-22T01:07:56.837Z,99.50
2019-04-22T01:10:32.412Z,98.40
2019-04-22T01:13:04.787Z,97.30
2019-04-22T01:15:40.597Z,97.00
2019-04-22T01:18:11.763Z,98.00
2019-04-22T01:21:02.169Z,97.60
2019-04-22T01:23:19.515Z,97.00
2019-04-22T01:25:46.523Z,96.70
2019-04-22T01:28:14.197Z,96.50
2019-04-22T01:30:48.193Z,96.10
2019-04-22T01:33:21.064Z,95.60
2019-04-22T01:36:01.402Z,95.10
2019-04-22T01:38:38.957Z,94.80
2019-04-22T01:41:25.329Z,94.90
2019-04-22T01:44:03.995Z,95.20
2019-04-22T01:46:25.743Z,95.50
2019-04-22T01:49:01.394Z,96.00
2019-04-22T01:51:45.526Z,96.10
2019-04-22T01:54:15.159Z,96.00
2019-04-22T01:56:42.304Z,96.30
2019-04-22T01:59:06.287Z,96.80
2019-04-22T02:01:53.444Z,97.10
2019-04-22T02:04:26.616Z,97.20
2019-04-22T02:06:59.830Z,97.60
2019-04-22T02:09:31.662Z,98.10
2019-04-22T02:12:05.883Z,99.00
2019-04-22T02:14:39.828Z,99.40
2019-04-22T02:19:50.209Z,99.40
2019-04-22T02:22:38.074Z,98.60
2019-04-22T02:24:51.100Z,98.80
2019-04-22T02:27:35.375Z,99.40
2019-04-22T02:29:58.252Z,99.90
2019-04-22T02:35:11.123Z,99.10
2019-04-22T02:37:35.876Z,99.10
2019-04-22T02:40:19.318Z,99.90
2019-04-22T02:42:52.152Z,99.90
2019-04-22T02:45:25.996Z,99.90
2019-04-22T02:47:58.550Z,99.90
2019-04-22T02:50:28.565Z,99.90
2019-04-22T02:53:21.079Z,99.90
2019-04-22T02:55:46.264Z,99.90
2019-04-22T02:58:12.566Z,99.90
2019-04-22T03:03:31.711Z,99.90
2019-04-22T03:06:12.711Z,99.90
2019-04-22T03:08:30.188Z,99.90
2019-04-22T03:11:12.483Z,99.90
2019-04-22T03:16:21.655Z,99.90
2019-04-22T03:24:08.556Z,99.90
2019-04-22T03:26:27.509Z,99.90
2019-04-22T03:39:46.263Z,99.90
2019-04-22T03:47:26.113Z,99.90
2019-04-22T03:49:56.553Z,99.90
2019-04-22T04:00:08.250Z,99.90
2019-04-22T04:02:55.947Z,99.90
2019-04-22T04:05:16.501Z,99.90
2019-04-22T04:10:30.593Z,99.90
2019-04-22T04:15:28.405Z,99.90
2019-04-22T04:17:54.943Z,99.90
2019-04-22T04:23:16.750Z,99.90
2019-04-22T04:28:29.354Z,99.90
2019-04-22T04:36:01.101Z,99.90
2019-04-22T04:38:28.768Z,99.90
2019-04-22T04:41:06.298Z,99.90
2019-04-22T04:46:14.143Z,99.90
2019-04-22T04:48:55.452Z,99.90
2019-04-22T04:51:28.691Z,99.90
2019-04-22T04:53:58.269Z,99.90
2019-04-22T04:56:34.734Z,99.90
2019-04-22T04:59:06.301Z,99.90
2019-04-22T05:01:30.208Z,99.90
2019-04-22T05:04:04.908Z,99.90
2019-04-22T05:06:42.993Z,99.90
2019-04-22T05:09:19.558Z,98.70
2019-04-22T05:12:05.365Z,95.00
2019-04-22T05:14:23.274Z,91.50
2019-04-22T05:16:47.197Z,87.50
2019-04-22T05:19:20.937Z,79.40
2019-04-22T05:22:05.160Z,75.90
2019-04-22T05:27:05.269Z,63.70
2019-04-22T05:29:36.150Z,62.50
2019-04-22T05:32:03.057Z,60.00
2019-04-22T05:34:35.573Z,58.10
2019-04-22T05:37:10.699Z,55.80
2019-04-22T05:39:44.932Z,53.30
2019-04-22T05:42:16.393Z,53.90
2019-04-22T05:44:52.837Z,53.50
2019-04-22T05:47:22.575Z,53.60
2019-04-22T05:49:56.979Z,54.10
2019-04-22T05:52:25.619Z,54.30
2019-04-22T05:55:08.306Z,54.50
2019-04-22T05:57:35.725Z,55.40
2019-04-22T06:00:18.011Z,57.60
2019-04-22T06:05:17.484Z,55.60
2019-04-22T06:07:55.124Z,54.10
2019-04-22T06:10:33.443Z,53.80
2019-04-22T06:12:56.492Z,52.80
2019-04-22T06:15:36.369Z,53.60
2019-04-22T06:21:00.549Z,54.30
2019-04-22T06:31:12.265Z,54.40
2019-04-22T06:33:45.910Z,51.90
2019-04-22T06:36:21.127Z,51.50
2019-04-22T06:39:05.149Z,52.50
2019-04-22T06:41:21.290Z,53.10
2019-04-22T06:43:58.141Z,53.50
2019-04-22T06:46:27.441Z,53.20
2019-04-22T06:49:03.253Z,54.30
2019-04-22T06:51:32.842Z,55.00
2019-04-22T06:54:10.513Z,55.90
2019-04-22T06:56:42.797Z,55.60
2019-04-22T06:59:11.888Z,57.60
2019-04-22T07:01:50.347Z,57.20
2019-04-22T07:04:17.263Z,57.40
2019-04-22T07:07:05.382Z,58.10
2019-04-22T07:12:09.787Z,63.40
2019-04-22T07:14:35.250Z,65.80
2019-04-22T07:17:07.397Z,64.70
2019-04-22T07:19:42.325Z,62.00
2019-04-22T07:22:16.293Z,62.80
2019-04-22T07:24:55.900Z,59.60
2019-04-22T07:27:22.238Z,59.20
2019-04-22T07:30:03.469Z,57.80
2019-04-22T07:32:53.809Z,59.50
2019-04-22T07:35:08.442Z,60.90
2019-04-22T07:37:43.465Z,62.50
2019-04-22T07:40:10.209Z,61.10
2019-04-22T07:42:45.502Z,63.50
2019-04-22T07:45:17.835Z,61.80
2019-04-22T07:47:52.191Z,61.40
2019-04-22T07:50:37.833Z,62.70
2019-04-22T07:52:57.051Z,62.80
2019-04-22T07:55:32.631Z,63.10
2019-04-22T07:58:04.977Z,61.60
2019-04-22T08:00:39.077Z,62.20
2019-04-22T08:03:22.699Z,59.80
2019-04-22T08:10:57.789Z,56.40
2019-04-22T08:13:30.848Z,57.10
2019-04-22T08:18:37.430Z,55.00
2019-04-22T08:21:06.370Z,54.30
2019-04-22T08:23:46.921Z,52.60
2019-04-22T08:26:13.475Z,51.60
2019-04-22T08:31:20.452Z,51.10
2019-04-22T08:33:54.635Z,50.30
2019-04-22T08:39:01.975Z,48.60
2019-04-22T08:41:39.813Z,50.20
2019-04-22T08:49:10.476Z,52.50
2019-04-22T08:51:49.548Z,50.10
2019-04-22T08:54:18.306Z,48.40
2019-04-22T08:56:52.428Z,50.40
2019-04-22T08:59:21.780Z,51.20
2019-04-22T09:02:07.735Z,52.20
2019-04-22T09:04:34.700Z,51.40
2019-04-22T09:09:47.282Z,54.00
2019-04-22T09:14:47.595Z,54.00
2019-04-22T09:20:00.295Z,51.70
2019-04-22T09:22:26.301Z,49.60
2019-04-22T09:25:03.716Z,50.10
2019-04-22T09:27:39.866Z,52.50
2019-04-22T09:30:15.765Z,51.50
2019-04-22T09:32:45.613Z,52.80
2019-04-22T09:35:16.117Z,52.60
2019-04-22T09:37:57.473Z,52.10
2019-04-22T09:40:22.244Z,52.10
2019-04-22T09:43:01.069Z,51.30
2019-04-22T09:45:27.457Z,51.10
2019-04-22T09:48:08.807Z,51.80
2019-04-22T09:50:43.142Z,53.10
2019-04-22T09:53:19.722Z,52.20
2019-04-22T09:55:50.043Z,51.80
2019-04-22T09:58:24.907Z,50.00
2019-04-22T10:03:54.604Z,52.30
2019-04-22T10:13:58.703Z,51.70
2019-04-22T10:21:46.272Z,49.80
2019-04-22T10:24:13.533Z,49.90
2019-04-22T10:29:43.874Z,48.20
2019-04-22T10:31:54.428Z,49.00
2019-04-22T10:34:14.010Z,50.80
2019-04-22T10:36:37.836Z,51.40
2019-04-22T10:39:10.765Z,49.10
2019-04-22T10:41:42.251Z,49.20
2019-04-22T10:44:15.286Z,50.60
2019-04-22T10:46:48.292Z,52.50
2019-04-22T10:49:20.479Z,50.40
2019-04-22T10:51:52.941Z,52.00
2019-04-22T10:54:25.340Z,52.00
2019-04-22T10:56:57.000Z,51.70
2019-04-22T10:59:28.933Z,53.10
2019-04-22T11:02:01.436Z,51.80
2019-04-22T11:04:32.537Z,52.20
2019-04-22T11:07:07.703Z,52.70
2019-04-22T11:09:49.361Z,51.10
2019-04-22T11:12:17.628Z,51.90
2019-04-22T11:14:45.696Z,52.70
2019-04-22T11:17:17.764Z,53.50
2019-04-22T11:19:49.944Z,50.30
2019-04-22T11:22:27.663Z,50.30
2019-04-22T11:24:58.952Z,50.90
2019-04-22T11:27:28.880Z,51.50
2019-04-22T11:30:01.860Z,53.80
2019-04-22T11:32:33.697Z,55.00
2019-04-22T11:35:07.821Z,54.60
2019-04-22T11:37:40.775Z,53.10
2019-04-22T11:40:18.953Z,53.80
2019-04-22T11:42:48.229Z,54.80
2019-04-22T11:45:21.434Z,53.40
2019-04-22T11:47:53.117Z,52.30
2019-04-22T11:50:26.200Z,52.20
2019-04-22T11:52:58.660Z,53.30
2019-04-22T11:55:30.940Z,52.50
2019-04-22T11:58:03.053Z,53.50
2019-04-22T12:00:37.029Z,50.50
2019-04-22T12:03:09.263Z,51.70
2019-04-22T12:05:41.739Z,52.00
2019-04-22T12:08:13.327Z,53.70
2019-04-22T12:10:51.555Z,51.40
2019-04-22T12:13:17.967Z,49.20
2019-04-22T12:15:51.278Z,48.50
2019-04-22T12:18:22.860Z,49.10
2019-04-22T12:20:55.321Z,50.00
2019-04-22T12:23:27.318Z,51.20
2019-04-22T12:26:04.227Z,50.70
2019-04-22T12:28:32.994Z,50.80
2019-04-22T12:31:05.712Z,50.30
2019-04-22T12:33:39.194Z,51.00
2019-04-22T12:36:12.787Z,51.10
2019-04-22T12:38:45.358Z,49.20
2019-04-22T12:41:17.918Z,49.80
2019-04-22T12:43:51.306Z,48.20
2019-04-22T12:46:26.125Z,48.20
2019-04-22T12:49:00.269Z,48.20
2019-04-22T12:51:33.289Z,48.20
2019-04-22T12:54:05.044Z,47.50
2019-04-22T12:56:37.524Z,45.10
2019-04-22T12:59:09.846Z,46.60
2019-04-22T13:01:42.998Z,47.60
2019-04-22T13:04:17.584Z,48.30
2019-04-22T13:06:48.130Z,48.00
2019-04-22T13:09:21.204Z,47.90
2019-04-22T13:11:53.288Z,47.10
2019-04-22T13:14:27.224Z,48.40
2019-04-22T13:16:59.790Z,49.10
2019-04-22T13:19:32.047Z,48.50
2019-04-22T13:22:05.066Z,48.60
2019-04-22T13:24:36.564Z,48.90
2019-04-22T13:27:08.872Z,48.90
2019-04-22T13:29:41.218Z,49.10
2019-04-22T13:32:14.324Z,49.40
2019-04-22T13:34:50.299Z,51.00
2019-04-22T13:37:20.703Z,51.20
2019-04-22T13:39:52.943Z,51.40
2019-04-22T13:42:25.507Z,51.30
2019-04-22T13:44:58.101Z,52.00
2019-04-22T13:47:46.456Z,51.00
2019-04-22T13:50:44.038Z,51.80
2019-04-22T13:55:43.737Z,51.10
2019-04-22T13:57:58.341Z,51.40
2019-04-22T14:00:24.911Z,51.70
2019-04-22T14:03:13.935Z,52.00
2019-04-22T14:05:46.770Z,52.40
2019-04-22T14:08:19.964Z,51.10
2019-04-22T14:10:52.493Z,51.50
2019-04-22T14:13:24.169Z,51.70
2019-04-22T14:15:56.991Z,51.80
2019-04-22T14:18:28.936Z,51.40
2019-04-22T14:21:00.962Z,52.30
2019-04-22T14:23:33.016Z,53.90
2019-04-22T14:26:05.270Z,54.10
2019-04-22T14:28:37.573Z,52.30
2019-04-22T14:31:10.491Z,52.10
2019-04-22T14:33:46.542Z,50.90
2019-04-22T14:36:19.185Z,49.20
2019-04-22T14:38:50.228Z,48.90
2019-04-22T14:41:42.901Z,48.30
2019-04-22T14:45:02.598Z,49.40
2019-04-22T14:46:58.668Z,51.50
2019-04-22T14:49:26.595Z,49.80
2019-04-22T14:51:57.638Z,50.20
2019-04-22T14:54:25.580Z,49.10
2019-04-22T14:56:42.290Z,48.60
2019-04-22T14:59:14.175Z,48.00
2019-04-22T15:01:45.680Z,48.90
2019-04-22T15:04:17.670Z,49.50
2019-04-22T15:06:50.360Z,46.80
2019-04-22T15:09:22.066Z,46.40
2019-04-22T15:12:08.397Z,47.70
2019-04-22T15:14:27.691Z,47.80
2019-04-22T15:17:13.530Z,49.50
2019-04-22T15:19:54.067Z,49.40
2019-04-22T15:22:26.443Z,48.50
2019-04-22T15:24:58.566Z,47.40
2019-04-22T15:27:31.173Z,48.10
2019-04-22T15:30:03.536Z,48.00
2019-04-22T15:32:35.704Z,48.50
2019-04-22T15:35:09.071Z,49.90
2019-04-22T15:37:41.412Z,51.90
2019-04-22T15:40:14.490Z,52.70
2019-04-22T15:42:47.078Z,53.90
2019-04-22T15:45:20.551Z,53.70
2019-04-22T15:47:53.465Z,53.90
2019-04-22T15:50:26.552Z,54.10
2019-04-22T15:53:00.762Z,54.50
2019-04-22T15:55:32.289Z,55.40
2019-04-22T15:58:05.844Z,55.50
2019-04-22T16:00:49.210Z,55.30
2019-04-22T16:03:12.536Z,56.50
2019-04-22T16:05:44.243Z,56.30
2019-04-22T16:08:17.179Z,56.20
2019-04-22T16:10:49.202Z,57.00
2019-04-22T16:13:24.424Z,57.40
2019-04-22T16:15:54.408Z,57.50
2019-04-22T16:18:26.523Z,56.80
2019-04-22T16:21:00.091Z,56.80
2019-04-22T16:23:38.142Z,57.10
2019-04-22T16:26:28.480Z,57.50
2019-04-22T16:29:01.327Z,57.60
2019-04-22T16:31:33.753Z,57.10
2019-04-22T16:34:07.642Z,57.60
2019-04-22T16:36:39.025Z,58.00
2019-04-22T16:39:13.233Z,58.20
2019-04-22T16:41:46.684Z,58.10
2019-04-22T16:44:18.628Z,58.00
2019-04-22T16:46:51.791Z,59.50
2019-04-22T16:49:23.701Z,59.60
2019-04-22T16:51:56.145Z,59.10
2019-04-22T16:54:28.214Z,59.30
2019-04-22T16:57:01.754Z,59.20
2019-04-22T16:59:35.033Z,59.00
2019-04-22T17:02:24.682Z,59.60
2019-04-22T17:05:18.030Z,59.60
2019-04-22T17:07:50.064Z,59.80
2019-04-22T17:10:21.892Z,61.00
2019-04-22T17:13:01.515Z,60.60
2019-04-22T17:15:27.131Z,61.00
2019-04-22T17:17:59.470Z,61.50
2019-04-22T17:20:31.258Z,61.80
2019-04-22T17:23:03.206Z,61.80
2019-04-22T17:25:36.353Z,62.10
2019-04-22T17:28:08.062Z,61.50
2019-04-22T17:30:41.445Z,61.20
2019-04-22T17:33:14.642Z,60.30
2019-04-22T17:35:48.842Z,60.20
2019-04-22T17:38:28.974Z,60.80
2019-04-22T17:41:10.487Z,60.40
2019-04-22T17:43:54.367Z,60.30
2019-04-22T17:46:23.404Z,59.80
2019-04-22T17:49:04.410Z,59.20
2019-04-22T17:51:38.192Z,59.20
2019-04-22T17:54:27.184Z,58.30
2019-04-22T17:56:43.390Z,58.50
2019-04-22T17:59:23.365Z,58.80
2019-04-22T18:01:49.184Z,59.00
2019-04-22T18:04:05.280Z,59.10
2019-04-22T18:07:03.840Z,59.40
2019-04-22T18:10:06.610Z,59.60
2019-04-22T18:12:11.573Z,60.40
2019-04-22T18:14:51.595Z,61.10
2019-04-22T18:17:17.289Z,60.80
2019-04-22T18:19:46.238Z,61.10
2019-04-22T18:22:12.302Z,60.80
2019-04-22T18:24:50.143Z,61.10
2019-04-22T18:27:40.167Z,60.80
2019-04-22T18:29:55.573Z,60.90
2019-04-22T18:32:30.623Z,61.50
2019-04-22T18:35:10.431Z,61.20
2019-04-22T18:37:45.072Z,61.70
2019-04-22T18:40:14.850Z,61.60
2019-04-22T18:42:55.226Z,62.20
2019-04-22T18:45:37.297Z,62.60
2019-04-22T18:47:52.223Z,62.80
2019-04-22T18:50:40.526Z,63.20
2019-04-22T18:53:25.150Z,63.60
2019-04-22T18:55:50.446Z,64.30
2019-04-22T18:58:24.639Z,64.50
2019-04-22T19:00:45.968Z,64.90
2019-04-22T19:03:22.685Z,65.50
2019-04-22T19:06:24.601Z,65.60
2019-04-22T19:08:45.117Z,65.90
2019-04-22T19:11:17.634Z,66.20
2019-04-22T19:19:22.516Z,67.80
2019-04-22T19:21:35.924Z,68.90
2019-04-22T19:24:07.223Z,69.20
2019-04-22T19:26:50.065Z,69.90
2019-04-22T19:29:20.648Z,70.60
2019-04-22T19:31:51.207Z,71.60
2019-04-22T19:34:20.426Z,72.20
2019-04-22T19:36:58.961Z,72.90
2019-04-22T19:39:28.742Z,73.70
2019-04-22T19:42:11.358Z,74.30
2019-04-22T19:44:37.764Z,74.70
2019-04-22T19:49:52.998Z,76.10
2019-04-22T19:52:24.461Z,76.90
2019-04-22T19:54:54.926Z,77.10
2019-04-22T19:57:22.527Z,77.90
2019-04-22T19:59:57.417Z,78.30
2019-04-22T20:03:16.898Z,79.90
2019-04-22T20:05:50.548Z,81.20
2019-04-22T20:08:21.499Z,81.80
2019-04-22T20:10:52.610Z,82.40
2019-04-22T20:13:31.107Z,83.50
2019-04-22T20:15:50.802Z,84.60
2019-04-22T20:18:43.676Z,85.60
2019-04-22T20:21:15.556Z,86.40
2019-04-22T20:23:35.127Z,87.40
2019-04-22T20:26:07.349Z,88.30
2019-04-22T20:28:46.603Z,88.30
2019-04-22T20:31:22.081Z,89.10
2019-04-22T20:33:58.054Z,89.10
2019-04-22T20:36:44.685Z,89.80
2019-04-22T20:38:56.456Z,89.90
2019-04-22T20:41:30.334Z,89.70
2019-04-22T20:44:11.008Z,89.90
2019-04-22T20:46:36.253Z,89.40
2019-04-22T20:49:11.719Z,90.00
2019-04-22T20:51:56.658Z,89.70
2019-04-22T20:54:19.684Z,89.50
2019-04-22T20:56:49.694Z,90.00
2019-04-22T20:59:24.309Z,90.10
2019-04-22T21:02:00.646Z,90.40
2019-04-22T21:04:27.792Z,90.70
2019-04-22T21:07:02.275Z,90.90
2019-04-22T21:09:37.933Z,91.30
2019-04-22T21:12:09.469Z,91.60
2019-04-22T21:14:47.215Z,91.90
2019-04-22T21:17:17.390Z,92.10
2019-04-22T21:20:00.622Z,92.60
2019-04-22T21:22:26.046Z,92.80
2019-04-22T21:24:53.654Z,93.30
2019-04-22T21:27:39.265Z,93.60
2019-04-22T21:30:01.339Z,94.00
2019-04-22T21:32:39.889Z,94.40
2019-04-22T21:35:21.874Z,95.00
2019-04-22T21:37:53.079Z,95.50
2019-04-22T21:40:20.000Z,96.10
2019-04-22T21:43:00.452Z,97.00
2019-04-22T21:45:23.965Z,98.10
2019-04-22T21:48:15.488Z,99.00
2019-04-22T21:50:50.149Z,99.80
2019-04-22T21:53:14.589Z,99.90
2019-04-22T21:55:48.923Z,99.90
2019-04-22T21:58:36.299Z,99.90
2019-04-22T22:03:52.245Z,99.90
2019-04-22T22:06:15.111Z,99.90
2019-04-22T22:08:59.712Z,99.90
2019-04-22T22:11:28.918Z,99.90
2019-04-22T22:14:04.642Z,99.90
2019-04-22T22:16:27.368Z,99.90
2019-04-22T22:19:22.405Z,99.90
2019-04-22T22:21:47.746Z,99.90
2019-04-22T22:24:20.715Z,99.90
2019-04-22T22:26:53.932Z,99.90
2019-04-22T22:29:38.567Z,99.90
2019-04-22T22:31:57.866Z,99.90
2019-04-22T22:34:26.838Z,99.90
2019-04-22T22:37:00.421Z,99.90
2019-04-22T22:39:27.554Z,99.90
2019-04-22T22:41:48.042Z,99.90
2019-04-22T22:44:27.303Z,99.90
2019-04-22T22:47:08.614Z,99.90
2019-04-22T22:49:48.298Z,99.90
2019-04-22T22:54:54.137Z,99.90
2019-04-22T22:57:35.192Z,99.90
2019-04-22T23:00:01.517Z,99.90
2019-04-22T23:02:36.909Z,99.90
2019-04-22T23:05:08.961Z,99.90
2019-04-22T23:07:52.592Z,99.90
2019-04-22T23:10:16.137Z,99.90
2019-04-22T23:12:55.598Z,99.90
2019-04-22T23:15:23.464Z,99.90
2019-04-22T23:17:38.973Z,99.90
2019-04-22T23:20:11.702Z,99.90
2019-04-22T23:23:07.977Z,99.90
2019-04-22T23:25:40.047Z,99.90
2019-04-22T23:28:28.202Z,99.90
2019-04-22T23:31:09.445Z,99.90
2019-04-22T23:33:57.364Z,99.90
2019-04-22T23:36:49.915Z,99.90
2019-04-22T23:39:35.604Z,99.90
2019-04-22T23:42:06.434Z,99.90
2019-04-22T23:44:36.679Z,99.90
2019-04-22T23:47:11.107Z,99.90
2019-04-22T23:49:53.475Z,99.90
2019-04-22T23:52:33.074Z,99.90
2019-04-22T23:55:06.937Z,99.90
2019-04-22T23:57:42.193Z,99.90
